createdAt,value
2019-04-28T00:00:06.781Z,101083.83
2019-04-28T00:02:35.078Z,101081.14
2019-04-28T00:05:04.110Z,101079.80
2019-04-28T00:07:32.392Z,101089.25
2019-04-28T00:10:01.117Z,101089.00
2019-04-28T00:12:31.116Z,101095.02
2019-04-28T00:14:59.421Z,101100.20
2019-04-28T00:17:27.810Z,101099.44
2019-04-28T00:19:57.760Z,101097.56
2019-04-28T00:22:27.711Z,101092.18
2019-04-28T00:25:01.566Z,101088.69
2019-04-28T00:27:31.619Z,101096.79
2019-04-28T00:30:01.976Z,101090.57
2019-04-28T00:32:30.468Z,101089.53
2019-04-28T00:35:02.285Z,101089.53
2019-04-28T00:37:32.141Z,101091.46
2019-04-28T00:40:01.050Z,101099.56
2019-04-28T00:42:31.329Z,101090.14
2019-04-28T00:45:01.449Z,101095.53
2019-04-28T00:47:31.136Z,101085.59
2019-04-28T00:50:01.930Z,101093.39
2019-04-28T00:52:31.818Z,101090.14
2019-04-28T00:55:01.205Z,101101.19
2019-04-28T00:57:31.040Z,101095.29
2019-04-28T00:59:59.641Z,101090.70
2019-04-28T01:02:33.538Z,101099.06
2019-04-28T01:05:02.143Z,101095.81
2019-04-28T01:07:31.329Z,101098.52
2019-04-28T01:10:01.394Z,101096.38
2019-04-28T01:12:31.048Z,101103.11
2019-04-28T01:15:04.036Z,101101.22
2019-04-28T01:17:31.515Z,101101.78
2019-04-28T01:20:04.177Z,101103.67
2019-04-28T01:22:33.328Z,101099.09
2019-04-28T01:25:02.391Z,101099.64
2019-04-28T01:27:32.333Z,101103.41
2019-04-28T01:30:07.863Z,101100.45
2019-04-28T01:32:51.835Z,101102.86
2019-04-28T01:35:21.099Z,101111.78
2019-04-28T01:37:50.497Z,101107.75
2019-04-28T01:40:20.514Z,101104.27
2019-04-28T01:42:49.965Z,101119.88
2019-04-28T01:45:20.561Z,101114.77
2019-04-28T01:47:50.398Z,101115.32
2019-04-28T01:50:20.505Z,101111.80
2019-04-28T01:52:49.727Z,101116.13
2019-04-28T01:55:20.017Z,101119.89
2019-04-28T01:57:49.776Z,101126.34
2019-04-28T02:00:25.101Z,101119.89
2019-04-28T02:02:50.546Z,101123.65
2019-04-28T02:05:19.659Z,101126.34
2019-04-28T02:07:50.481Z,101129.59
2019-04-28T02:10:21.500Z,101127.41
2019-04-28T02:12:50.348Z,101127.41
2019-04-28T02:15:20.176Z,101126.05
2019-04-28T02:17:51.358Z,101121.77
2019-04-28T02:20:21.620Z,101128.74
2019-04-28T02:22:57.678Z,101127.95
2019-04-28T02:25:26.061Z,101127.11
2019-04-28T02:27:57.062Z,101139.23
2019-04-28T02:30:40.905Z,101131.98
2019-04-28T02:32:54.551Z,101137.88
2019-04-28T02:35:22.852Z,101138.16
2019-04-28T02:37:51.270Z,101133.59
2019-04-28T02:40:20.664Z,101128.46
2019-04-28T02:42:51.927Z,101134.95
2019-04-28T02:45:21.717Z,101131.98
2019-04-28T02:47:52.291Z,101136.02
2019-04-28T02:50:34.465Z,101130.63
2019-04-28T02:53:07.118Z,101126.03
2019-04-28T02:55:35.410Z,101130.91
2019-04-28T02:58:03.900Z,101132.25
2019-04-28T03:00:33.027Z,101132.25
2019-04-28T03:03:01.715Z,101137.36
2019-04-28T03:05:33.315Z,101140.58
2019-04-28T03:08:01.219Z,101141.41
2019-04-28T03:10:31.142Z,101146.80
2019-04-28T03:13:01.046Z,101154.59
2019-04-28T03:15:30.394Z,101162.95
2019-04-28T03:18:01.641Z,101163.75
2019-04-28T03:20:30.602Z,101162.95
2019-04-28T03:23:00.903Z,101164.03
2019-04-28T03:25:33.420Z,101160.55
2019-04-28T03:28:05.859Z,101162.41
2019-04-28T03:30:45.102Z,101165.93
2019-04-28T03:33:19.187Z,101174.81
2019-04-28T03:35:48.050Z,101165.94
2019-04-28T03:38:16.332Z,101171.84
2019-04-28T03:40:44.651Z,101167.28
2019-04-28T03:43:14.335Z,101172.41
2019-04-28T03:45:47.167Z,101172.95
2019-04-28T03:48:15.483Z,101174.58
2019-04-28T03:50:43.825Z,101171.06
2019-04-28T03:53:12.105Z,101177.28
2019-04-28T03:55:41.685Z,101173.48
2019-04-28T03:58:10.568Z,101176.73
2019-04-28T04:00:40.877Z,101183.47
2019-04-28T04:03:10.934Z,101183.22
2019-04-28T04:05:40.580Z,101184.84
2019-04-28T04:08:10.983Z,101180.53
2019-04-28T04:10:46.582Z,101189.13
2019-04-28T04:13:16.642Z,101184.30
2019-04-28T04:16:01.336Z,101181.08
2019-04-28T04:18:30.943Z,101181.60
2019-04-28T04:21:00.843Z,101182.95
2019-04-28T04:23:30.856Z,101179.70
2019-04-28T04:26:01.723Z,101190.75
2019-04-28T04:28:30.444Z,101182.67
2019-04-28T04:31:02.539Z,101196.41
2019-04-28T04:33:31.023Z,101186.16
2019-04-28T04:36:01.531Z,101191.82
2019-04-28T04:38:33.558Z,101196.41
2019-04-28T04:41:02.053Z,101197.76
2019-04-28T04:43:31.235Z,101192.38
2019-04-28T04:46:14.316Z,101198.03
2019-04-28T04:48:43.982Z,101200.45
2019-04-28T04:51:12.339Z,101208.53
2019-04-28T04:53:40.901Z,101199.11
2019-04-28T04:56:10.497Z,101199.11
2019-04-28T04:58:40.655Z,101214.44
2019-04-28T05:01:10.884Z,101220.92
2019-04-28T05:03:43.746Z,101223.59
2019-04-28T05:06:30.176Z,101227.63
2019-04-28T05:08:59.946Z,101227.35
2019-04-28T05:11:29.983Z,101229.80
2019-04-28T05:13:59.628Z,101232.22
2019-04-28T05:16:29.785Z,101227.34
2019-04-28T05:19:00.030Z,101233.80
2019-04-28T05:21:32.809Z,101236.77
2019-04-28T05:24:20.009Z,101233.23
2019-04-28T05:26:51.426Z,101234.84
2019-04-28T05:29:26.440Z,101238.59
2019-04-28T05:31:50.384Z,101242.36
2019-04-28T05:34:20.513Z,101242.34
2019-04-28T05:36:50.501Z,101250.66
2019-04-28T05:39:19.583Z,101250.36
2019-04-28T05:41:50.302Z,101265.19
2019-04-28T05:44:20.107Z,101257.88
2019-04-28T05:46:50.629Z,101262.73
2019-04-28T05:49:36.937Z,101267.84
2019-04-28T05:52:06.855Z,101271.88
2019-04-28T05:54:49.644Z,101272.11
2019-04-28T05:57:20.670Z,101261.58
2019-04-28T06:00:01.105Z,101263.97
2019-04-28T06:02:34.175Z,101271.24
2019-04-28T06:05:02.720Z,101266.34
2019-04-28T06:07:35.428Z,101270.90
2019-04-28T06:10:05.747Z,101267.37
2019-04-28T06:12:34.039Z,101269.03
2019-04-28T06:15:02.374Z,101277.12
2019-04-28T06:17:30.774Z,101277.09
2019-04-28T06:20:00.239Z,101284.36
2019-04-28T06:22:28.633Z,101289.47
2019-04-28T06:24:56.936Z,101294.05
2019-04-28T06:27:25.360Z,101297.25
2019-04-28T06:29:53.652Z,101301.84
2019-04-28T06:32:21.956Z,101307.22
2019-04-28T06:34:50.252Z,101311.49
2019-04-28T06:37:18.634Z,101316.57
2019-04-28T06:39:47.463Z,101319.52
2019-04-28T06:42:15.828Z,101323.55
2019-04-28T06:44:44.140Z,101321.61
2019-04-28T06:47:12.419Z,101314.03
2019-04-28T06:49:41.391Z,101318.84
2019-04-28T06:52:09.690Z,101314.45
2019-04-28T06:54:38.039Z,101317.33
2019-04-28T06:57:06.498Z,101317.53
2019-04-28T06:59:34.858Z,101320.98
2019-04-28T07:02:03.266Z,101324.97
2019-04-28T07:04:31.561Z,101328.72
2019-04-28T07:06:59.897Z,101333.31
2019-04-28T07:09:28.758Z,101332.98
2019-04-28T07:11:57.058Z,101337.23
2019-04-28T07:14:25.422Z,101335.25
2019-04-28T07:16:53.821Z,101340.59
2019-04-28T07:19:22.257Z,101338.92
2019-04-28T07:21:58.108Z,101347.53
2019-04-28T07:24:26.577Z,101350.42
2019-04-28T07:26:54.917Z,101358.50
2019-04-28T07:29:23.294Z,101351.12
2019-04-28T07:31:51.730Z,101355.39
2019-04-28T07:34:20.055Z,101345.33
2019-04-28T07:36:48.370Z,101346.92
2019-04-28T07:39:16.858Z,101350.44
2019-04-28T07:41:45.135Z,101346.63
2019-04-28T07:44:13.792Z,101346.11
2019-04-28T07:46:42.207Z,101356.62
2019-04-28T07:49:10.480Z,101355.15
2019-04-28T07:51:40.612Z,101364.83
2019-04-28T07:54:13.053Z,101367.22
2019-04-28T07:56:41.362Z,101373.66
2019-04-28T07:59:09.813Z,101373.31
2019-04-28T08:01:38.245Z,101371.11
2019-04-28T08:04:06.552Z,101374.52
2019-04-28T08:06:35.740Z,101377.89
2019-04-28T08:09:06.339Z,101379.62
2019-04-28T08:11:34.687Z,101376.47
2019-04-28T08:14:03.175Z,101374.15
2019-04-28T08:16:31.460Z,101380.00
2019-04-28T08:19:00.201Z,101386.14
2019-04-28T08:21:28.612Z,101390.63
2019-04-28T08:23:56.897Z,101390.70
2019-04-28T08:26:25.241Z,101384.78
2019-04-28T08:28:53.676Z,101386.50
2019-04-28T08:31:23.718Z,101387.51
2019-04-28T08:34:02.233Z,101390.06
2019-04-28T08:36:23.820Z,101402.75
2019-04-28T08:38:52.157Z,101399.39
2019-04-28T08:41:20.461Z,101400.31
2019-04-28T08:43:48.750Z,101411.62
2019-04-28T08:46:17.103Z,101416.17
2019-04-28T08:48:45.669Z,101413.64
2019-04-28T08:51:14.087Z,101422.75
2019-04-28T08:53:42.431Z,101419.15
2019-04-28T08:56:10.783Z,101417.88
2019-04-28T08:58:39.062Z,101430.23
2019-04-28T09:01:07.873Z,101433.19
2019-04-28T09:03:36.154Z,101433.97
2019-04-28T09:06:04.508Z,101433.84
2019-04-28T09:08:32.959Z,101440.10
2019-04-28T09:11:04.142Z,101434.56
2019-04-28T09:13:32.536Z,101439.91
2019-04-28T09:16:00.948Z,101454.19
2019-04-28T09:18:29.236Z,101449.81
2019-04-28T09:20:57.600Z,101457.55
2019-04-28T09:23:26.083Z,101457.41
2019-04-28T09:25:54.369Z,101463.09
2019-04-28T09:28:22.690Z,101465.63
2019-04-28T09:30:51.947Z,101460.06
2019-04-28T09:33:20.259Z,101468.91
2019-04-28T09:35:48.680Z,101470.17
2019-04-28T09:38:16.984Z,101477.97
2019-04-28T09:40:45.471Z,101482.88
2019-04-28T09:43:15.464Z,101479.84
2019-04-28T09:45:45.473Z,101482.77
2019-04-28T09:48:14.746Z,101483.81
2019-04-28T09:50:43.202Z,101493.97
2019-04-28T09:53:11.498Z,101486.48
2019-04-28T09:55:39.837Z,101489.92
2019-04-28T09:58:08.142Z,101488.67
2019-04-28T10:00:38.167Z,101492.59
2019-04-28T10:03:06.499Z,101495.94
2019-04-28T10:05:34.910Z,101496.02
2019-04-28T10:08:03.179Z,101492.86
2019-04-28T10:10:31.542Z,101488.59
2019-04-28T10:12:59.929Z,101492.17
2019-04-28T10:15:28.411Z,101497.36
2019-04-28T10:17:56.680Z,101502.50
2019-04-28T10:20:25.045Z,101508.77
2019-04-28T10:22:53.381Z,101504.63
2019-04-28T10:25:21.744Z,101508.77
2019-04-28T10:27:50.163Z,101511.48
2019-04-28T10:30:18.496Z,101510.00
2019-04-28T10:32:46.773Z,101508.58
2019-04-28T10:35:16.767Z,101508.09
2019-04-28T10:37:45.647Z,101515.44
2019-04-28T10:40:24.913Z,101512.66
2019-04-28T10:42:53.288Z,101519.98
2019-04-28T10:45:23.241Z,101520.14
2019-04-28T10:47:51.590Z,101518.19
2019-04-28T10:50:20.146Z,101523.86
2019-04-28T10:52:48.594Z,101530.07
2019-04-28T10:55:16.896Z,101524.25
2019-04-28T10:57:45.353Z,101526.34
2019-04-28T11:00:14.332Z,101535.38
2019-04-28T11:02:43.471Z,101531.30
2019-04-28T11:05:13.973Z,101528.11
2019-04-28T11:07:42.993Z,101529.88
2019-04-28T11:10:12.975Z,101532.89
2019-04-28T11:12:41.249Z,101539.45
2019-04-28T11:15:11.192Z,101530.81
2019-04-28T11:17:39.578Z,101537.09
2019-04-28T11:20:08.145Z,101537.10
2019-04-28T11:22:36.616Z,101538.28
2019-04-28T11:25:06.507Z,101537.05
2019-04-28T11:27:34.883Z,101537.73
2019-04-28T11:30:04.342Z,101542.88
2019-04-28T11:32:32.719Z,101547.53
2019-04-28T11:35:05.325Z,101544.49
2019-04-28T11:37:34.310Z,101547.86
2019-04-28T11:40:05.886Z,101549.09
2019-04-28T11:42:34.296Z,101555.59
2019-04-28T11:45:04.724Z,101546.58
2019-04-28T11:47:33.130Z,101557.66
2019-04-28T11:50:01.481Z,101564.86
2019-04-28T11:52:29.772Z,101559.30
2019-04-28T11:54:58.082Z,101557.83
2019-04-28T11:57:26.512Z,101555.47
2019-04-28T11:59:54.789Z,101564.30
2019-04-28T12:02:24.141Z,101563.94
2019-04-28T12:04:54.148Z,101567.08
2019-04-28T12:07:22.423Z,101569.39
2019-04-28T12:10:03.914Z,101567.56
2019-04-28T12:12:27.039Z,101577.04
2019-04-28T12:14:59.512Z,101579.76
2019-04-28T12:17:29.445Z,101573.11
2019-04-28T12:19:59.466Z,101572.88
2019-04-28T12:22:27.807Z,101578.16
2019-04-28T12:24:56.167Z,101570.72
2019-04-28T12:27:24.529Z,101573.84
2019-04-28T12:29:52.852Z,101573.34
2019-04-28T12:32:21.129Z,101575.62
2019-04-28T12:34:49.643Z,101578.17
2019-04-28T12:37:18.071Z,101575.68
2019-04-28T12:39:46.348Z,101577.20
2019-04-28T12:42:14.818Z,101581.11
2019-04-28T12:44:43.149Z,101587.20
2019-04-28T12:47:11.461Z,101587.55
2019-04-28T12:49:44.102Z,101596.02
2019-04-28T12:52:12.885Z,101599.25
2019-04-28T12:54:41.345Z,101599.34
2019-04-28T12:57:09.770Z,101597.20
2019-04-28T12:59:39.703Z,101601.41
2019-04-28T13:02:09.639Z,101602.64
2019-04-28T13:04:39.591Z,101604.78
2019-04-28T13:07:08.877Z,101600.27
2019-04-28T13:09:37.244Z,101602.48
2019-04-28T13:12:05.970Z,101606.07
2019-04-28T13:14:34.307Z,101609.16
2019-04-28T13:17:02.610Z,101605.78
2019-04-28T13:19:30.930Z,101612.22
2019-04-28T13:21:59.345Z,101620.78
2019-04-28T13:24:27.716Z,101627.33
2019-04-28T13:26:56.125Z,101632.77
2019-04-28T13:29:24.510Z,101632.77
2019-04-28T13:31:52.807Z,101640.98
2019-04-28T13:34:22.991Z,101645.93
2019-04-28T13:36:51.605Z,101646.16
2019-04-28T13:39:27.322Z,101642.64
2019-04-28T13:41:55.613Z,101645.11
2019-04-28T13:44:41.912Z,101637.27
2019-04-28T13:47:10.397Z,101626.99
2019-04-28T13:49:49.262Z,101632.70
2019-04-28T13:52:17.704Z,101631.41
2019-04-28T13:54:47.809Z,101631.39
2019-04-28T13:57:16.115Z,101631.06
2019-04-28T13:59:45.743Z,101631.25
2019-04-28T14:02:15.758Z,101635.08
2019-04-28T14:04:45.969Z,101632.57
2019-04-28T14:07:14.280Z,101635.12
2019-04-28T14:09:42.587Z,101627.67
2019-04-28T14:12:10.949Z,101631.20
2019-04-28T14:14:40.247Z,101630.94
2019-04-28T14:17:08.571Z,101637.47
2019-04-28T14:19:37.008Z,101628.96
2019-04-28T14:22:05.281Z,101637.92
2019-04-28T14:24:33.592Z,101641.42
2019-04-28T14:27:01.954Z,101649.61
2019-04-28T14:29:30.402Z,101637.81
2019-04-28T14:31:58.811Z,101645.95
2019-04-28T14:34:27.147Z,101646.90
2019-04-28T14:36:55.550Z,101650.40
2019-04-28T14:39:24.572Z,101652.86
2019-04-28T14:41:53.710Z,101653.95
2019-04-28T14:44:22.035Z,101649.94
2019-04-28T14:46:50.454Z,101652.70
2019-04-28T14:49:19.047Z,101654.70
2019-04-28T14:51:47.334Z,101659.72
2019-04-28T14:54:15.643Z,101660.23
2019-04-28T14:56:43.929Z,101661.88
2019-04-28T14:59:12.354Z,101659.89
2019-04-28T15:01:58.537Z,101658.58
2019-04-28T15:04:28.577Z,101657.25
2019-04-28T15:06:59.719Z,101654.28
2019-04-28T15:09:32.763Z,101657.60
2019-04-28T15:12:04.484Z,101658.92
2019-04-28T15:14:32.711Z,101664.19
2019-04-28T15:17:01.018Z,101672.39
2019-04-28T15:19:31.041Z,101670.67
2019-04-28T15:21:59.347Z,101678.47
2019-04-28T15:24:27.615Z,101672.16
2019-04-28T15:26:56.142Z,101675.62
2019-04-28T15:29:24.497Z,101684.85
2019-04-28T15:31:52.830Z,101683.03
2019-04-28T15:34:21.514Z,101679.60
2019-04-28T15:36:49.996Z,101680.59
2019-04-28T15:39:18.308Z,101688.94
2019-04-28T15:41:46.603Z,101688.25
2019-04-28T15:44:15.336Z,101692.34
2019-04-28T15:46:43.901Z,101695.70
2019-04-28T15:49:12.504Z,101692.18
2019-04-28T15:51:41.572Z,101693.12
2019-04-28T15:54:09.893Z,101688.57
2019-04-28T15:56:39.811Z,101686.43
2019-04-28T15:59:08.977Z,101690.68
2019-04-28T16:01:37.375Z,101690.22
2019-04-28T16:04:06.411Z,101693.28
2019-04-28T16:06:34.707Z,101695.83
2019-04-28T16:09:05.106Z,101699.16
2019-04-28T16:11:33.491Z,101699.24
2019-04-28T16:14:02.346Z,101704.73
2019-04-28T16:16:30.699Z,101711.59
2019-04-28T16:18:59.040Z,101716.24
2019-04-28T16:21:27.360Z,101715.77
2019-04-28T16:23:55.645Z,101719.35
2019-04-28T16:26:24.098Z,101722.13
2019-04-28T16:28:53.252Z,101728.25
2019-04-28T16:31:21.543Z,101729.20
2019-04-28T16:33:49.903Z,101728.63
2019-04-28T16:36:18.218Z,101729.12
2019-04-28T16:38:46.502Z,101731.13
2019-04-28T16:41:19.747Z,101742.02
2019-04-28T16:43:52.818Z,101745.77
2019-04-28T16:46:21.159Z,101740.83
2019-04-28T16:48:49.453Z,101747.13
2019-04-28T16:51:17.752Z,101757.68
2019-04-28T16:53:46.075Z,101756.20
2019-04-28T16:56:16.009Z,101757.21
2019-04-28T16:58:45.937Z,101759.40
2019-04-28T17:01:24.941Z,101761.88
2019-04-28T17:03:53.257Z,101778.86
2019-04-28T17:06:21.601Z,101778.42
2019-04-28T17:08:49.934Z,101779.91
2019-04-28T17:11:18.217Z,101785.17
2019-04-28T17:13:46.498Z,101785.51
2019-04-28T17:16:15.487Z,101775.07
2019-04-28T17:18:44.164Z,101779.33
2019-04-28T17:21:12.471Z,101784.38
2019-04-28T17:23:40.786Z,101789.98
2019-04-28T17:26:11.313Z,101786.27
2019-04-28T17:28:39.702Z,101789.05
2019-04-28T17:31:08.598Z,101793.49
2019-04-28T17:33:36.988Z,101791.41
2019-04-28T17:36:05.593Z,101780.86
2019-04-28T17:38:33.995Z,101788.13
2019-04-28T17:41:02.447Z,101787.13
2019-04-28T17:43:30.811Z,101793.25
2019-04-28T17:45:59.120Z,101794.31
2019-04-28T17:48:31.650Z,101792.68
2019-04-28T17:50:59.969Z,101797.55
2019-04-28T17:53:35.170Z,101793.92
2019-04-28T17:56:03.519Z,101795.80
2019-04-28T17:58:31.859Z,101803.28
2019-04-28T18:01:10.552Z,101800.41
2019-04-28T18:03:43.499Z,101810.49
2019-04-28T18:06:17.914Z,101805.46
2019-04-28T18:08:46.397Z,101818.06
2019-04-28T18:11:14.713Z,101815.69
2019-04-28T18:13:43.159Z,101819.80
2019-04-28T18:16:25.380Z,101828.25
2019-04-28T18:19:22.090Z,101830.67
2019-04-28T18:21:49.428Z,101829.08
2019-04-28T18:24:17.755Z,101827.81
2019-04-28T18:26:46.912Z,101831.63
2019-04-28T18:29:15.588Z,101831.63
2019-04-28T18:31:51.352Z,101834.58
2019-04-28T18:34:26.705Z,101836.97
2019-04-28T18:37:12.703Z,101836.94
2019-04-28T18:39:59.702Z,101844.80
2019-04-28T18:42:44.406Z,101849.14
2019-04-28T18:45:13.194Z,101849.94
2019-04-28T18:47:41.551Z,101854.05
2019-04-28T18:50:11.026Z,101855.17
2019-04-28T18:52:58.103Z,101856.56
2019-04-28T18:55:26.444Z,101857.98
2019-04-28T18:57:54.803Z,101860.47
2019-04-28T19:00:35.069Z,101863.25
2019-04-28T19:05:55.788Z,101871.26
2019-04-28T19:08:31.446Z,101877.58
2019-04-28T19:11:01.383Z,101880.48
2019-04-28T19:13:36.199Z,101883.10
2019-04-28T19:16:09.026Z,101881.81
2019-04-28T19:18:39.548Z,101884.05
2019-04-28T19:21:10.691Z,101888.17
2019-04-28T19:23:39.014Z,101891.47
2019-04-28T19:26:07.317Z,101903.73
2019-04-28T19:28:36.046Z,101905.66
2019-04-28T19:31:04.341Z,101904.63
2019-04-28T19:33:34.969Z,101903.38
2019-04-28T19:36:03.448Z,101913.53
2019-04-28T19:38:31.810Z,101914.94
2019-04-28T19:41:00.183Z,101923.89
2019-04-28T19:43:28.508Z,101920.67
2019-04-28T19:45:58.558Z,101924.78
2019-04-28T19:48:26.931Z,101923.16
2019-04-28T19:50:55.484Z,101915.08
2019-04-28T19:53:23.826Z,101921.92
2019-04-28T19:56:05.786Z,101928.74
2019-04-28T19:58:36.297Z,101925.52
2019-04-28T20:01:18.611Z,101929.88
2019-04-28T20:03:47.214Z,101935.06
2019-04-28T20:06:18.816Z,101936.44
2019-04-28T20:08:47.899Z,101941.59
2019-04-28T20:11:16.356Z,101939.18
2019-04-28T20:13:44.639Z,101951.38
2019-04-28T20:16:13.039Z,101945.17
2019-04-28T20:18:41.392Z,101941.65
2019-04-28T20:21:09.682Z,101952.25
2019-04-28T20:23:38.032Z,101951.19
2019-04-28T20:26:06.325Z,101956.90
2019-04-28T20:28:34.711Z,101956.91
2019-04-28T20:31:03.003Z,101953.41
2019-04-28T20:33:31.909Z,101953.42
2019-04-28T20:36:07.818Z,101955.59
2019-04-28T20:38:36.216Z,101952.88
2019-04-28T20:41:06.095Z,101961.27
2019-04-28T20:43:34.484Z,101962.63
2019-04-28T20:46:02.907Z,101967.23
2019-04-28T20:48:31.266Z,101970.22
2019-04-28T20:50:59.573Z,101964.81
2019-04-28T20:53:28.460Z,101976.19
2019-04-28T20:55:56.773Z,101971.05
2019-04-28T20:58:25.078Z,101975.11
2019-04-28T21:00:53.404Z,101975.66
2019-04-28T21:03:21.715Z,101976.17
2019-04-28T21:05:51.965Z,101982.14
2019-04-28T21:08:20.278Z,101994.86
2019-04-28T21:10:48.578Z,101987.81
2019-04-28T21:13:16.860Z,101984.30
2019-04-28T21:15:45.193Z,101987.80
2019-04-28T21:18:13.489Z,101998.64
2019-04-28T21:20:41.798Z,101994.28
2019-04-28T21:23:10.112Z,101992.39
2019-04-28T21:25:38.401Z,101986.69
2019-04-28T21:28:06.716Z,101986.67
2019-04-28T21:30:35.009Z,101988.29
2019-04-28T21:33:03.334Z,101986.65
2019-04-28T21:35:31.957Z,101981.50
2019-04-28T21:38:00.313Z,101983.92
2019-04-28T21:40:29.040Z,101986.63
2019-04-28T21:43:13.966Z,101983.92
2019-04-28T21:46:01.815Z,101991.73
2019-04-28T21:48:37.741Z,101987.67
2019-04-28T21:51:06.040Z,101985.74
2019-04-28T21:53:34.320Z,101987.92
2019-04-28T21:56:03.496Z,101989.25
2019-04-28T21:58:33.235Z,101997.33
2019-04-28T22:01:02.096Z,102001.64
2019-04-28T22:03:30.466Z,101995.94
2019-04-28T22:05:58.810Z,101998.11
2019-04-28T22:08:27.160Z,102000.80
2019-04-28T22:10:55.439Z,102004.29
2019-04-28T22:13:23.757Z,102002.67
2019-04-28T22:15:52.173Z,102002.11
2019-04-28T22:18:20.496Z,102008.33
2019-04-28T22:20:48.771Z,102010.46
2019-04-28T22:23:35.167Z,102013.72
2019-04-28T22:26:03.522Z,102020.70
2019-04-28T22:28:31.814Z,102020.97
2019-04-28T22:31:00.113Z,102019.88
2019-04-28T22:33:28.684Z,102026.61
2019-04-28T22:35:57.029Z,102033.35
2019-04-28T22:38:25.880Z,102029.03
2019-04-28T22:40:54.154Z,102027.91
2019-04-28T22:43:22.564Z,102027.39
2019-04-28T22:45:50.843Z,102031.45
2019-04-28T22:48:22.424Z,102035.21
2019-04-28T22:50:51.191Z,102041.13
2019-04-28T22:53:21.283Z,102041.07
2019-04-28T22:56:10.435Z,102041.34
2019-04-28T22:58:49.294Z,102047.80
2019-04-28T23:01:24.925Z,102044.52
2019-04-28T23:04:09.867Z,102040.99
2019-04-28T23:06:38.650Z,102054.47
2019-04-28T23:09:09.060Z,102055.52
2019-04-28T23:11:37.355Z,102053.89
2019-04-28T23:14:06.337Z,102050.87
2019-04-28T23:16:34.728Z,102053.30
2019-04-28T23:19:04.740Z,102058.67
2019-04-28T23:21:49.996Z,102058.93
2019-04-28T23:24:18.418Z,102055.95
2019-04-28T23:26:47.365Z,102058.39
2019-04-28T23:29:15.643Z,102055.12
2019-04-28T23:31:44.043Z,102056.19
2019-04-28T23:34:12.333Z,102061.05
2019-04-28T23:36:40.706Z,102062.37
2019-04-28T23:39:09.824Z,102069.38
2019-04-28T23:41:45.359Z,102066.66
2019-04-28T23:44:13.645Z,102066.08
2019-04-28T23:47:00.233Z,102071.71
2019-04-28T23:49:29.323Z,102062.50
2019-04-28T23:51:59.325Z,102063.28
2019-04-28T23:54:27.671Z,102058.70
2019-04-28T23:56:55.979Z,102065.44
2019-04-28T23:59:24.268Z,102073.53
